sensor_id;sensor_type;location;lat;lon;timestamp;P1;durP1;ratioP1;P2;durP2;ratioP2
13356;SDS011;6747;56.456;-3.120;2022-07-09T00:00:37;1.00;;;1.00;;
13356;SDS011;6747;56.456;-3.120;2022-07-09T00:03:04;0.80;;;0.80;;
13356;SDS011;6747;56.456;-3.120;2022-07-09T00:08:04;0.63;;;0.63;;
13356;SDS011;6747;56.456;-3.120;2022-07-09T00:10:33;0.60;;;0.60;;
13356;SDS011;6747;56.456;-3.120;2022-07-09T00:13:07;0.80;;;0.80;;
13356;SDS011;6747;56.456;-3.120;2022-07-09T00:15:45;0.70;;;0.70;;
13356;SDS011;6747;56.456;-3.120;2022-07-09T00:18:12;0.75;;;0.52;;
13356;SDS011;6747;56.456;-3.120;2022-07-09T00:20:40;0.65;;;0.65;;
13356;SDS011;6747;56.456;-3.120;2022-07-09T00:23:15;0.60;;;0.60;;
13356;SDS011;6747;56.456;-3.120;2022-07-09T00:31:34;0.75;;;0.75;;
13356;SDS011;6747;56.456;-3.120;2022-07-09T00:34:04;0.50;;;0.50;;
13356;SDS011;6747;56.456;-3.120;2022-07-09T00:36:35;0.57;;;0.57;;
13356;SDS011;6747;56.456;-3.120;2022-07-09T00:39:04;0.50;;;0.50;;
13356;SDS011;6747;56.456;-3.120;2022-07-09T00:41:31;0.57;;;0.57;;
13356;SDS011;6747;56.456;-3.120;2022-07-09T00:43:59;0.63;;;0.63;;
13356;SDS011;6747;56.456;-3.120;2022-07-09T00:46:27;0.63;;;0.63;;
13356;SDS011;6747;56.456;-3.120;2022-07-09T00:48:55;1.00;;;0.70;;
13356;SDS011;6747;56.456;-3.120;2022-07-09T00:51:28;0.68;;;0.68;;
13356;SDS011;6747;56.456;-3.120;2022-07-09T00:53:59;0.55;;;0.55;;
13356;SDS011;6747;56.456;-3.120;2022-07-09T00:56:27;0.95;;;0.40;;
13356;SDS011;6747;56.456;-3.120;2022-07-09T00:58:55;0.60;;;0.57;;
13356;SDS011;6747;56.456;-3.120;2022-07-09T01:01:23;0.75;;;0.50;;
13356;SDS011;6747;56.456;-3.120;2022-07-09T01:06:55;0.65;;;0.50;;
13356;SDS011;6747;56.456;-3.120;2022-07-09T01:09:23;0.50;;;0.40;;
13356;SDS011;6747;56.456;-3.120;2022-07-09T01:11:50;0.40;;;0.40;;
13356;SDS011;6747;56.456;-3.120;2022-07-09T01:17:22;0.90;;;0.55;;
13356;SDS011;6747;56.456;-3.120;2022-07-09T01:19:49;0.52;;;0.40;;
13356;SDS011;6747;56.456;-3.120;2022-07-09T01:22:18;0.50;;;0.40;;
13356;SDS011;6747;56.456;-3.120;2022-07-09T01:27:49;0.85;;;0.40;;
13356;SDS011;6747;56.456;-3.120;2022-07-09T01:30:23;0.32;;;0.32;;
13356;SDS011;6747;56.456;-3.120;2022-07-09T01:32:51;0.68;;;0.52;;
13356;SDS011;6747;56.456;-3.120;2022-07-09T01:38:06;0.57;;;0.38;;
13356;SDS011;6747;56.456;-3.120;2022-07-09T01:40:34;0.30;;;0.30;;
13356;SDS011;6747;56.456;-3.120;2022-07-09T01:43:02;0.50;;;0.50;;
13356;SDS011;6747;56.456;-3.120;2022-07-09T01:48:15;1.10;;;0.40;;
13356;SDS011;6747;56.456;-3.120;2022-07-09T01:50:43;0.43;;;0.40;;
13356;SDS011;6747;56.456;-3.120;2022-07-09T01:53:12;0.32;;;0.32;;
13356;SDS011;6747;56.456;-3.120;2022-07-09T01:58:43;0.30;;;0.30;;
13356;SDS011;6747;56.456;-3.120;2022-07-09T02:01:11;1.02;;;0.38;;
13356;SDS011;6747;56.456;-3.120;2022-07-09T02:03:38;0.40;;;0.40;;
13356;SDS011;6747;56.456;-3.120;2022-07-09T02:06:06;1.38;;;0.40;;
13356;SDS011;6747;56.456;-3.120;2022-07-09T02:08:35;0.28;;;0.28;;
13356;SDS011;6747;56.456;-3.120;2022-07-09T02:11:04;1.08;;;0.52;;
13356;SDS011;6747;56.456;-3.120;2022-07-09T02:16:19;0.50;;;0.50;;
13356;SDS011;6747;56.456;-3.120;2022-07-09T02:21:50;0.95;;;0.40;;
13356;SDS011;6747;56.456;-3.120;2022-07-09T02:27:23;0.60;;;0.60;;
13356;SDS011;6747;56.456;-3.120;2022-07-09T02:29:50;0.55;;;0.55;;
13356;SDS011;6747;56.456;-3.120;2022-07-09T02:32:18;0.95;;;0.52;;
13356;SDS011;6747;56.456;-3.120;2022-07-09T02:37:34;0.30;;;0.30;;
13356;SDS011;6747;56.456;-3.120;2022-07-09T02:40:01;0.45;;;0.40;;
13356;SDS011;6747;56.456;-3.120;2022-07-09T02:42:30;1.48;;;0.50;;
13356;SDS011;6747;56.456;-3.120;2022-07-09T02:45:00;0.43;;;0.30;;
13356;SDS011;6747;56.456;-3.120;2022-07-09T02:47:28;0.43;;;0.43;;
13356;SDS011;6747;56.456;-3.120;2022-07-09T02:49:55;0.40;;;0.40;;
13356;SDS011;6747;56.456;-3.120;2022-07-09T02:52:23;0.40;;;0.40;;
13356;SDS011;6747;56.456;-3.120;2022-07-09T02:57:38;0.63;;;0.63;;
13356;SDS011;6747;56.456;-3.120;2022-07-09T03:00:06;1.55;;;0.73;;
13356;SDS011;6747;56.456;-3.120;2022-07-09T03:02:34;0.85;;;0.73;;
13356;SDS011;6747;56.456;-3.120;2022-07-09T03:08:05;0.50;;;0.50;;
13356;SDS011;6747;56.456;-3.120;2022-07-09T03:13:38;0.50;;;0.50;;
13356;SDS011;6747;56.456;-3.120;2022-07-09T03:16:06;1.05;;;0.57;;
13356;SDS011;6747;56.456;-3.120;2022-07-09T03:18:33;0.60;;;0.60;;
13356;SDS011;6747;56.456;-3.120;2022-07-09T03:21:02;0.60;;;0.60;;
13356;SDS011;6747;56.456;-3.120;2022-07-09T03:23:30;0.68;;;0.68;;
13356;SDS011;6747;56.456;-3.120;2022-07-09T03:25:58;2.90;;;0.88;;
13356;SDS011;6747;56.456;-3.120;2022-07-09T03:28:25;0.52;;;0.52;;
13356;SDS011;6747;56.456;-3.120;2022-07-09T03:30:54;0.77;;;0.60;;
13356;SDS011;6747;56.456;-3.120;2022-07-09T03:33:22;0.40;;;0.40;;
13356;SDS011;6747;56.456;-3.120;2022-07-09T03:35:49;0.43;;;0.40;;
13356;SDS011;6747;56.456;-3.120;2022-07-09T03:38:17;0.40;;;0.40;;
13356;SDS011;6747;56.456;-3.120;2022-07-09T03:40:44;0.40;;;0.40;;
13356;SDS011;6747;56.456;-3.120;2022-07-09T03:43:12;0.47;;;0.47;;
13356;SDS011;6747;56.456;-3.120;2022-07-09T03:48:27;0.50;;;0.50;;
13356;SDS011;6747;56.456;-3.120;2022-07-09T03:50:55;0.43;;;0.43;;
13356;SDS011;6747;56.456;-3.120;2022-07-09T03:53:22;1.13;;;0.40;;
13356;SDS011;6747;56.456;-3.120;2022-07-09T03:55:50;0.50;;;0.50;;
13356;SDS011;6747;56.456;-3.120;2022-07-09T03:58:17;0.85;;;0.50;;
13356;SDS011;6747;56.456;-3.120;2022-07-09T04:00:45;0.40;;;0.40;;
13356;SDS011;6747;56.456;-3.120;2022-07-09T04:03:12;0.70;;;0.70;;
13356;SDS011;6747;56.456;-3.120;2022-07-09T04:05:42;0.52;;;0.50;;
13356;SDS011;6747;56.456;-3.120;2022-07-09T04:08:10;0.82;;;0.63;;
13356;SDS011;6747;56.456;-3.120;2022-07-09T04:10:38;0.50;;;0.50;;
13356;SDS011;6747;56.456;-3.120;2022-07-09T04:13:06;1.25;;;0.50;;
13356;SDS011;6747;56.456;-3.120;2022-07-09T04:15:35;1.35;;;0.43;;
13356;SDS011;6747;56.456;-3.120;2022-07-09T04:18:03;0.55;;;0.55;;
13356;SDS011;6747;56.456;-3.120;2022-07-09T04:20:33;0.40;;;0.40;;
13356;SDS011;6747;56.456;-3.120;2022-07-09T04:23:02;0.40;;;0.40;;
13356;SDS011;6747;56.456;-3.120;2022-07-09T04:28:35;0.50;;;0.50;;
13356;SDS011;6747;56.456;-3.120;2022-07-09T04:31:02;0.75;;;0.40;;
13356;SDS011;6747;56.456;-3.120;2022-07-09T04:33:30;1.55;;;0.47;;
13356;SDS011;6747;56.456;-3.120;2022-07-09T04:35:57;1.40;;;0.45;;
13356;SDS011;6747;56.456;-3.120;2022-07-09T04:38:26;0.57;;;0.57;;
13356;SDS011;6747;56.456;-3.120;2022-07-09T04:40:54;0.47;;;0.47;;
13356;SDS011;6747;56.456;-3.120;2022-07-09T04:43:21;1.20;;;0.63;;
13356;SDS011;6747;56.456;-3.120;2022-07-09T04:45:49;0.85;;;0.30;;
13356;SDS011;6747;56.456;-3.120;2022-07-09T04:48:16;0.38;;;0.38;;
13356;SDS011;6747;56.456;-3.120;2022-07-09T04:50:44;0.43;;;0.43;;
13356;SDS011;6747;56.456;-3.120;2022-07-09T04:53:11;0.30;;;0.30;;
13356;SDS011;6747;56.456;-3.120;2022-07-09T04:58:26;0.55;;;0.55;;
13356;SDS011;6747;56.456;-3.120;2022-07-09T05:00:55;0.20;;;0.20;;
13356;SDS011;6747;56.456;-3.120;2022-07-09T05:03:23;0.60;;;0.60;;
13356;SDS011;6747;56.456;-3.120;2022-07-09T05:05:50;0.43;;;0.32;;
13356;SDS011;6747;56.456;-3.120;2022-07-09T05:08:18;0.40;;;0.40;;
13356;SDS011;6747;56.456;-3.120;2022-07-09T05:10:46;0.35;;;0.35;;
13356;SDS011;6747;56.456;-3.120;2022-07-09T05:13:13;1.40;;;0.50;;
13356;SDS011;6747;56.456;-3.120;2022-07-09T05:15:44;0.50;;;0.50;;
13356;SDS011;6747;56.456;-3.120;2022-07-09T05:18:11;0.43;;;0.43;;
13356;SDS011;6747;56.456;-3.120;2022-07-09T05:20:39;0.70;;;0.70;;
13356;SDS011;6747;56.456;-3.120;2022-07-09T05:23:07;1.08;;;0.50;;
13356;SDS011;6747;56.456;-3.120;2022-07-09T05:28:05;0.50;;;0.50;;
13356;SDS011;6747;56.456;-3.120;2022-07-09T05:30:33;0.38;;;0.38;;
13356;SDS011;6747;56.456;-3.120;2022-07-09T05:33:03;0.30;;;0.30;;
13356;SDS011;6747;56.456;-3.120;2022-07-09T05:38:35;0.30;;;0.30;;
13356;SDS011;6747;56.456;-3.120;2022-07-09T05:41:03;0.90;;;0.40;;
13356;SDS011;6747;56.456;-3.120;2022-07-09T05:46:36;0.50;;;0.43;;
13356;SDS011;6747;56.456;-3.120;2022-07-09T05:49:05;0.60;;;0.60;;
13356;SDS011;6747;56.456;-3.120;2022-07-09T05:51:32;0.60;;;0.60;;
13356;SDS011;6747;56.456;-3.120;2022-07-09T05:57:04;0.20;;;0.20;;
13356;SDS011;6747;56.456;-3.120;2022-07-09T05:59:31;1.00;;;0.60;;
13356;SDS011;6747;56.456;-3.120;2022-07-09T06:01:59;0.52;;;0.52;;
13356;SDS011;6747;56.456;-3.120;2022-07-09T06:07:34;2.80;;;0.70;;
13356;SDS011;6747;56.456;-3.120;2022-07-09T06:10:02;1.05;;;0.52;;
13356;SDS011;6747;56.456;-3.120;2022-07-09T06:12:29;1.23;;;0.57;;
13356;SDS011;6747;56.456;-3.120;2022-07-09T06:18:00;0.93;;;0.68;;
13356;SDS011;6747;56.456;-3.120;2022-07-09T06:20:28;0.60;;;0.60;;
13356;SDS011;6747;56.456;-3.120;2022-07-09T06:22:57;0.50;;;0.50;;
13356;SDS011;6747;56.456;-3.120;2022-07-09T06:28:15;0.57;;;0.57;;
13356;SDS011;6747;56.456;-3.120;2022-07-09T06:30:43;0.70;;;0.70;;
13356;SDS011;6747;56.456;-3.120;2022-07-09T06:33:10;1.33;;;0.80;;
13356;SDS011;6747;56.456;-3.120;2022-07-09T06:35:38;0.90;;;0.63;;
13356;SDS011;6747;56.456;-3.120;2022-07-09T06:38:07;0.88;;;0.88;;
13356;SDS011;6747;56.456;-3.120;2022-07-09T06:40:34;0.70;;;0.70;;
13356;SDS011;6747;56.456;-3.120;2022-07-09T06:43:02;1.33;;;0.80;;
13356;SDS011;6747;56.456;-3.120;2022-07-09T06:51:04;1.33;;;0.70;;
13356;SDS011;6747;56.456;-3.120;2022-07-09T06:53:33;0.85;;;0.80;;
13356;SDS011;6747;56.456;-3.120;2022-07-09T06:56:00;1.35;;;0.85;;
13356;SDS011;6747;56.456;-3.120;2022-07-09T06:58:28;2.40;;;0.70;;
13356;SDS011;6747;56.456;-3.120;2022-07-09T07:00:56;1.60;;;0.80;;
13356;SDS011;6747;56.456;-3.120;2022-07-09T07:03:23;1.23;;;1.08;;
13356;SDS011;6747;56.456;-3.120;2022-07-09T07:05:54;0.73;;;0.73;;
13356;SDS011;6747;56.456;-3.120;2022-07-09T07:08:21;0.80;;;0.70;;
13356;SDS011;6747;56.456;-3.120;2022-07-09T07:10:50;1.20;;;1.15;;
13356;SDS011;6747;56.456;-3.120;2022-07-09T07:13:18;0.70;;;0.70;;
13356;SDS011;6747;56.456;-3.120;2022-07-09T07:18:49;1.02;;;0.90;;
13356;SDS011;6747;56.456;-3.120;2022-07-09T07:21:17;0.82;;;0.82;;
13356;SDS011;6747;56.456;-3.120;2022-07-09T07:23:46;1.80;;;0.82;;
13356;SDS011;6747;56.456;-3.120;2022-07-09T07:26:15;1.33;;;0.90;;
13356;SDS011;6747;56.456;-3.120;2022-07-09T07:28:43;1.50;;;0.90;;
13356;SDS011;6747;56.456;-3.120;2022-07-09T07:31:10;3.08;;;1.00;;
13356;SDS011;6747;56.456;-3.120;2022-07-09T07:36:41;1.02;;;0.77;;
13356;SDS011;6747;56.456;-3.120;2022-07-09T07:39:09;0.73;;;0.73;;
13356;SDS011;6747;56.456;-3.120;2022-07-09T07:41:38;1.27;;;1.00;;
13356;SDS011;6747;56.456;-3.120;2022-07-09T07:47:09;2.22;;;0.77;;
13356;SDS011;6747;56.456;-3.120;2022-07-09T07:49:36;0.98;;;0.70;;
13356;SDS011;6747;56.456;-3.120;2022-07-09T07:52:04;1.50;;;1.00;;
13356;SDS011;6747;56.456;-3.120;2022-07-09T07:57:36;1.00;;;0.90;;
13356;SDS011;6747;56.456;-3.120;2022-07-09T08:00:04;1.15;;;1.00;;
13356;SDS011;6747;56.456;-3.120;2022-07-09T08:02:32;1.25;;;1.15;;
13356;SDS011;6747;56.456;-3.120;2022-07-09T08:08:04;2.00;;;0.95;;
13356;SDS011;6747;56.456;-3.120;2022-07-09T08:13:37;1.95;;;1.10;;
13356;SDS011;6747;56.456;-3.120;2022-07-09T08:16:05;2.47;;;1.00;;
13356;SDS011;6747;56.456;-3.120;2022-07-09T08:18:32;1.13;;;1.00;;
13356;SDS011;6747;56.456;-3.120;2022-07-09T08:21:00;0.93;;;0.73;;
13356;SDS011;6747;56.456;-3.120;2022-07-09T08:26:31;2.78;;;1.30;;
13356;SDS011;6747;56.456;-3.120;2022-07-09T08:29:00;2.50;;;0.98;;
13356;SDS011;6747;56.456;-3.120;2022-07-09T08:31:30;1.02;;;0.93;;
13356;SDS011;6747;56.456;-3.120;2022-07-09T08:37:01;2.38;;;1.15;;
13356;SDS011;6747;56.456;-3.120;2022-07-09T08:39:28;1.52;;;1.15;;
13356;SDS011;6747;56.456;-3.120;2022-07-09T08:41:56;1.02;;;0.80;;
13356;SDS011;6747;56.456;-3.120;2022-07-09T08:47:28;1.20;;;0.70;;
13356;SDS011;6747;56.456;-3.120;2022-07-09T08:49:56;1.52;;;1.00;;
13356;SDS011;6747;56.456;-3.120;2022-07-09T08:52:24;0.80;;;0.80;;
13356;SDS011;6747;56.456;-3.120;2022-07-09T08:57:56;1.35;;;0.85;;
13356;SDS011;6747;56.456;-3.120;2022-07-09T09:00:23;1.80;;;0.95;;
13356;SDS011;6747;56.456;-3.120;2022-07-09T09:02:52;0.93;;;0.90;;
13356;SDS011;6747;56.456;-3.120;2022-07-09T09:08:24;1.75;;;0.95;;
13356;SDS011;6747;56.456;-3.120;2022-07-09T09:10:52;1.38;;;0.85;;
13356;SDS011;6747;56.456;-3.120;2022-07-09T09:13:19;1.65;;;1.20;;
13356;SDS011;6747;56.456;-3.120;2022-07-09T09:18:53;1.10;;;0.88;;
13356;SDS011;6747;56.456;-3.120;2022-07-09T09:21:21;1.13;;;0.80;;
13356;SDS011;6747;56.456;-3.120;2022-07-09T09:23:50;1.30;;;1.20;;
13356;SDS011;6747;56.456;-3.120;2022-07-09T09:26:19;1.65;;;0.93;;
13356;SDS011;6747;56.456;-3.120;2022-07-09T09:28:48;1.27;;;1.08;;
13356;SDS011;6747;56.456;-3.120;2022-07-09T09:31:22;1.10;;;0.90;;
13356;SDS011;6747;56.456;-3.120;2022-07-09T09:36:38;1.45;;;1.15;;
13356;SDS011;6747;56.456;-3.120;2022-07-09T09:39:15;1.13;;;1.02;;
13356;SDS011;6747;56.456;-3.120;2022-07-09T09:41:44;1.83;;;1.02;;
13356;SDS011;6747;56.456;-3.120;2022-07-09T09:44:12;1.17;;;0.90;;
13356;SDS011;6747;56.456;-3.120;2022-07-09T09:46:41;1.95;;;0.82;;
13356;SDS011;6747;56.456;-3.120;2022-07-09T09:49:09;0.93;;;0.73;;
13356;SDS011;6747;56.456;-3.120;2022-07-09T09:51:44;1.17;;;0.73;;
13356;SDS011;6747;56.456;-3.120;2022-07-09T09:57:04;1.35;;;1.05;;
13356;SDS011;6747;56.456;-3.120;2022-07-09T09:59:32;1.55;;;0.77;;
13356;SDS011;6747;56.456;-3.120;2022-07-09T10:02:00;1.10;;;1.00;;
13356;SDS011;6747;56.456;-3.120;2022-07-09T10:07:33;1.02;;;0.88;;
13356;SDS011;6747;56.456;-3.120;2022-07-09T10:10:01;1.77;;;0.80;;
13356;SDS011;6747;56.456;-3.120;2022-07-09T10:12:29;1.65;;;1.10;;
13356;SDS011;6747;56.456;-3.120;2022-07-09T10:18:09;1.10;;;0.98;;
13356;SDS011;6747;56.456;-3.120;2022-07-09T10:20:36;1.13;;;0.93;;
13356;SDS011;6747;56.456;-3.120;2022-07-09T10:23:05;0.98;;;0.98;;
13356;SDS011;6747;56.456;-3.120;2022-07-09T10:28:40;1.63;;;1.10;;
13356;SDS011;6747;56.456;-3.120;2022-07-09T10:31:07;1.33;;;1.00;;
13356;SDS011;6747;56.456;-3.120;2022-07-09T10:39:30;0.98;;;0.93;;
13356;SDS011;6747;56.456;-3.120;2022-07-09T10:41:59;0.85;;;0.85;;
13356;SDS011;6747;56.456;-3.120;2022-07-09T10:50:35;1.23;;;1.13;;
13356;SDS011;6747;56.456;-3.120;2022-07-09T10:53:03;0.95;;;0.95;;
13356;SDS011;6747;56.456;-3.120;2022-07-09T10:58:36;0.88;;;0.88;;
13356;SDS011;6747;56.456;-3.120;2022-07-09T11:01:03;1.58;;;0.90;;
13356;SDS011;6747;56.456;-3.120;2022-07-09T11:03:31;2.00;;;0.98;;
13356;SDS011;6747;56.456;-3.120;2022-07-09T11:05:59;1.10;;;1.08;;
13356;SDS011;6747;56.456;-3.120;2022-07-09T11:08:26;1.00;;;0.88;;
13356;SDS011;6747;56.456;-3.120;2022-07-09T11:10:55;1.45;;;1.00;;
13356;SDS011;6747;56.456;-3.120;2022-07-09T11:13:23;1.67;;;1.00;;
13356;SDS011;6747;56.456;-3.120;2022-07-09T11:15:58;1.02;;;0.98;;
13356;SDS011;6747;56.456;-3.120;2022-07-09T11:18:27;1.20;;;1.00;;
13356;SDS011;6747;56.456;-3.120;2022-07-09T11:20:54;1.27;;;1.10;;
13356;SDS011;6747;56.456;-3.120;2022-07-09T11:23:22;1.20;;;1.10;;
13356;SDS011;6747;56.456;-3.120;2022-07-09T11:25:49;1.13;;;0.93;;
13356;SDS011;6747;56.456;-3.120;2022-07-09T11:28:20;3.03;;;1.10;;
13356;SDS011;6747;56.456;-3.120;2022-07-09T11:30:57;1.00;;;0.82;;
13356;SDS011;6747;56.456;-3.120;2022-07-09T11:33:26;2.17;;;1.20;;
13356;SDS011;6747;56.456;-3.120;2022-07-09T11:36:13;0.90;;;0.90;;
13356;SDS011;6747;56.456;-3.120;2022-07-09T11:38:45;2.25;;;1.00;;
13356;SDS011;6747;56.456;-3.120;2022-07-09T11:41:13;0.95;;;0.90;;
13356;SDS011;6747;56.456;-3.120;2022-07-09T11:46:44;1.13;;;1.00;;
13356;SDS011;6747;56.456;-3.120;2022-07-09T11:49:16;1.65;;;1.15;;
13356;SDS011;6747;56.456;-3.120;2022-07-09T11:51:43;2.90;;;1.20;;
13356;SDS011;6747;56.456;-3.120;2022-07-09T12:00:22;1.63;;;0.95;;
13356;SDS011;6747;56.456;-3.120;2022-07-09T12:02:49;1.13;;;0.90;;
13356;SDS011;6747;56.456;-3.120;2022-07-09T12:08:27;1.60;;;0.80;;
13356;SDS011;6747;56.456;-3.120;2022-07-09T12:10:55;0.95;;;0.95;;
13356;SDS011;6747;56.456;-3.120;2022-07-09T12:13:23;1.10;;;1.10;;
13356;SDS011;6747;56.456;-3.120;2022-07-09T12:25:04;2.08;;;0.93;;
13356;SDS011;6747;56.456;-3.120;2022-07-09T12:27:31;1.05;;;1.00;;
13356;SDS011;6747;56.456;-3.120;2022-07-09T12:29:59;1.30;;;0.75;;
13356;SDS011;6747;56.456;-3.120;2022-07-09T12:32:26;2.85;;;1.00;;
13356;SDS011;6747;56.456;-3.120;2022-07-09T12:37:57;3.67;;;1.05;;
13356;SDS011;6747;56.456;-3.120;2022-07-09T12:40:26;1.25;;;0.90;;
13356;SDS011;6747;56.456;-3.120;2022-07-09T12:42:53;3.20;;;1.10;;
13356;SDS011;6747;56.456;-3.120;2022-07-09T12:51:28;1.35;;;1.00;;
13356;SDS011;6747;56.456;-3.120;2022-07-09T12:57:00;1.30;;;1.20;;
13356;SDS011;6747;56.456;-3.120;2022-07-09T12:59:28;1.15;;;0.90;;
13356;SDS011;6747;56.456;-3.120;2022-07-09T13:01:56;1.70;;;1.17;;
13356;SDS011;6747;56.456;-3.120;2022-07-09T13:04:24;1.27;;;0.95;;
13356;SDS011;6747;56.456;-3.120;2022-07-09T13:06:52;1.00;;;1.00;;
13356;SDS011;6747;56.456;-3.120;2022-07-09T13:09:19;1.75;;;1.13;;
13356;SDS011;6747;56.456;-3.120;2022-07-09T13:11:47;1.90;;;1.30;;
13356;SDS011;6747;56.456;-3.120;2022-07-09T13:20:23;1.30;;;1.20;;
13356;SDS011;6747;56.456;-3.120;2022-07-09T13:22:51;1.33;;;0.98;;
13356;SDS011;6747;56.456;-3.120;2022-07-09T13:28:22;3.00;;;1.05;;
13356;SDS011;6747;56.456;-3.120;2022-07-09T13:30:49;1.25;;;1.13;;
13356;SDS011;6747;56.456;-3.120;2022-07-09T13:33:17;1.92;;;1.30;;
13356;SDS011;6747;56.456;-3.120;2022-07-09T13:38:49;1.40;;;1.30;;
13356;SDS011;6747;56.456;-3.120;2022-07-09T13:47:08;1.15;;;1.02;;
13356;SDS011;6747;56.456;-3.120;2022-07-09T13:49:35;0.90;;;0.90;;
13356;SDS011;6747;56.456;-3.120;2022-07-09T13:52:03;2.67;;;1.15;;
13356;SDS011;6747;56.456;-3.120;2022-07-09T13:57:36;1.20;;;1.10;;
13356;SDS011;6747;56.456;-3.120;2022-07-09T14:00:04;1.48;;;1.20;;
13356;SDS011;6747;56.456;-3.120;2022-07-09T14:02:31;1.65;;;1.17;;
13356;SDS011;6747;56.456;-3.120;2022-07-09T14:08:02;1.77;;;1.10;;
13356;SDS011;6747;56.456;-3.120;2022-07-09T14:10:30;0.95;;;0.90;;
13356;SDS011;6747;56.456;-3.120;2022-07-09T14:12:59;1.85;;;0.90;;
13356;SDS011;6747;56.456;-3.120;2022-07-09T14:18:30;1.27;;;1.10;;
13356;SDS011;6747;56.456;-3.120;2022-07-09T14:20:58;1.20;;;1.10;;
13356;SDS011;6747;56.456;-3.120;2022-07-09T14:23:25;1.33;;;1.23;;
13356;SDS011;6747;56.456;-3.120;2022-07-09T14:25:53;1.00;;;0.90;;
13356;SDS011;6747;56.456;-3.120;2022-07-09T14:31:26;1.77;;;1.10;;
13356;SDS011;6747;56.456;-3.120;2022-07-09T14:40:02;1.38;;;1.05;;
13356;SDS011;6747;56.456;-3.120;2022-07-09T14:42:29;1.80;;;1.13;;
13356;SDS011;6747;56.456;-3.120;2022-07-09T14:48:01;1.63;;;1.15;;
13356;SDS011;6747;56.456;-3.120;2022-07-09T14:50:32;1.13;;;0.82;;
13356;SDS011;6747;56.456;-3.120;2022-07-09T14:53:00;0.95;;;0.95;;
13356;SDS011;6747;56.456;-3.120;2022-07-09T14:58:31;1.42;;;0.80;;
13356;SDS011;6747;56.456;-3.120;2022-07-09T15:04:03;2.15;;;0.93;;
13356;SDS011;6747;56.456;-3.120;2022-07-09T15:06:31;0.85;;;0.85;;
13356;SDS011;6747;56.456;-3.120;2022-07-09T15:08:58;0.82;;;0.80;;
13356;SDS011;6747;56.456;-3.120;2022-07-09T15:11:26;0.90;;;0.90;;
13356;SDS011;6747;56.456;-3.120;2022-07-09T15:16:58;0.73;;;0.70;;
13356;SDS011;6747;56.456;-3.120;2022-07-09T15:19:28;1.27;;;0.90;;
13356;SDS011;6747;56.456;-3.120;2022-07-09T15:21:56;2.90;;;1.05;;
13356;SDS011;6747;56.456;-3.120;2022-07-09T15:27:27;0.68;;;0.68;;
13356;SDS011;6747;56.456;-3.120;2022-07-09T15:29:54;0.93;;;0.93;;
13356;SDS011;6747;56.456;-3.120;2022-07-09T15:32:22;0.90;;;0.90;;
13356;SDS011;6747;56.456;-3.120;2022-07-09T15:37:55;0.80;;;0.50;;
13356;SDS011;6747;56.456;-3.120;2022-07-09T15:40:22;0.80;;;0.80;;
13356;SDS011;6747;56.456;-3.120;2022-07-09T15:42:50;1.10;;;0.80;;
13356;SDS011;6747;56.456;-3.120;2022-07-09T15:48:21;1.08;;;0.80;;
13356;SDS011;6747;56.456;-3.120;2022-07-09T15:50:48;0.90;;;0.90;;
13356;SDS011;6747;56.456;-3.120;2022-07-09T15:53:17;2.05;;;1.10;;
13356;SDS011;6747;56.456;-3.120;2022-07-09T15:55:46;1.25;;;0.80;;
13356;SDS011;6747;56.456;-3.120;2022-07-09T15:58:13;1.17;;;0.90;;
13356;SDS011;6747;56.456;-3.120;2022-07-09T16:00:41;1.45;;;0.68;;
13356;SDS011;6747;56.456;-3.120;2022-07-09T16:03:08;0.70;;;0.70;;
13356;SDS011;6747;56.456;-3.120;2022-07-09T16:08:41;1.27;;;0.88;;
13356;SDS011;6747;56.456;-3.120;2022-07-09T16:11:08;1.13;;;0.77;;
13356;SDS011;6747;56.456;-3.120;2022-07-09T16:16:57;2.47;;;0.77;;
13356;SDS011;6747;56.456;-3.120;2022-07-09T16:19:24;0.80;;;0.80;;
13356;SDS011;6747;56.456;-3.120;2022-07-09T16:21:52;0.52;;;0.50;;
13356;SDS011;6747;56.456;-3.120;2022-07-09T16:27:07;0.85;;;0.85;;
13356;SDS011;6747;56.456;-3.120;2022-07-09T16:29:35;1.45;;;0.95;;
13356;SDS011;6747;56.456;-3.120;2022-07-09T16:32:04;0.70;;;0.70;;
13356;SDS011;6747;56.456;-3.120;2022-07-09T16:37:35;0.85;;;0.85;;
13356;SDS011;6747;56.456;-3.120;2022-07-09T16:40:03;2.22;;;0.90;;
13356;SDS011;6747;56.456;-3.120;2022-07-09T16:42:33;0.93;;;0.82;;
13356;SDS011;6747;56.456;-3.120;2022-07-09T16:48:05;0.82;;;0.70;;
13356;SDS011;6747;56.456;-3.120;2022-07-09T16:50:32;1.63;;;1.05;;
13356;SDS011;6747;56.456;-3.120;2022-07-09T16:53:00;1.98;;;1.17;;
13356;SDS011;6747;56.456;-3.120;2022-07-09T16:58:33;1.27;;;0.70;;
13356;SDS011;6747;56.456;-3.120;2022-07-09T17:01:00;1.42;;;0.70;;
13356;SDS011;6747;56.456;-3.120;2022-07-09T17:03:28;0.70;;;0.70;;
13356;SDS011;6747;56.456;-3.120;2022-07-09T17:05:56;1.75;;;1.10;;
13356;SDS011;6747;56.456;-3.120;2022-07-09T17:08:23;1.40;;;1.00;;
13356;SDS011;6747;56.456;-3.120;2022-07-09T17:10:51;1.15;;;1.10;;
13356;SDS011;6747;56.456;-3.120;2022-07-09T17:13:18;0.82;;;0.75;;
13356;SDS011;6747;56.456;-3.120;2022-07-09T17:18:51;1.13;;;0.75;;
13356;SDS011;6747;56.456;-3.120;2022-07-09T17:21:18;1.08;;;0.93;;
13356;SDS011;6747;56.456;-3.120;2022-07-09T17:23:46;1.20;;;1.10;;
13356;SDS011;6747;56.456;-3.120;2022-07-09T17:26:14;1.50;;;1.35;;
13356;SDS011;6747;56.456;-3.120;2022-07-09T17:28:41;1.45;;;0.90;;
13356;SDS011;6747;56.456;-3.120;2022-07-09T17:31:09;0.70;;;0.70;;
13356;SDS011;6747;56.456;-3.120;2022-07-09T17:33:38;0.68;;;0.68;;
13356;SDS011;6747;56.456;-3.120;2022-07-09T17:36:07;1.00;;;0.90;;
13356;SDS011;6747;56.456;-3.120;2022-07-09T17:41:38;1.00;;;0.80;;
13356;SDS011;6747;56.456;-3.120;2022-07-09T17:46:36;0.80;;;0.80;;
13356;SDS011;6747;56.456;-3.120;2022-07-09T17:49:04;0.60;;;0.60;;
13356;SDS011;6747;56.456;-3.120;2022-07-09T17:51:33;0.90;;;0.70;;
13356;SDS011;6747;56.456;-3.120;2022-07-09T17:54:01;0.98;;;0.95;;
13356;SDS011;6747;56.456;-3.120;2022-07-09T17:56:29;1.60;;;1.00;;
13356;SDS011;6747;56.456;-3.120;2022-07-09T17:58:59;1.10;;;1.00;;
13356;SDS011;6747;56.456;-3.120;2022-07-09T18:01:26;1.08;;;0.80;;
13356;SDS011;6747;56.456;-3.120;2022-07-09T18:06:59;1.52;;;1.10;;
13356;SDS011;6747;56.456;-3.120;2022-07-09T18:09:26;1.38;;;0.90;;
13356;SDS011;6747;56.456;-3.120;2022-07-09T18:11:54;0.98;;;0.80;;
13356;SDS011;6747;56.456;-3.120;2022-07-09T18:17:25;1.48;;;0.88;;
13356;SDS011;6747;56.456;-3.120;2022-07-09T18:19:52;1.05;;;1.00;;
13356;SDS011;6747;56.456;-3.120;2022-07-09T18:22:21;1.20;;;0.82;;
13356;SDS011;6747;56.456;-3.120;2022-07-09T18:27:52;1.65;;;0.90;;
13356;SDS011;6747;56.456;-3.120;2022-07-09T18:30:20;3.10;;;1.00;;
13356;SDS011;6747;56.456;-3.120;2022-07-09T18:32:48;2.03;;;0.98;;
13356;SDS011;6747;56.456;-3.120;2022-07-09T18:38:20;1.00;;;0.85;;
13356;SDS011;6747;56.456;-3.120;2022-07-09T18:40:48;2.38;;;1.13;;
13356;SDS011;6747;56.456;-3.120;2022-07-09T18:43:17;2.75;;;1.23;;
13356;SDS011;6747;56.456;-3.120;2022-07-09T18:48:48;1.30;;;0.90;;
13356;SDS011;6747;56.456;-3.120;2022-07-09T18:51:16;2.53;;;0.90;;
13356;SDS011;6747;56.456;-3.120;2022-07-09T18:53:44;0.80;;;0.80;;
13356;SDS011;6747;56.456;-3.120;2022-07-09T18:56:12;1.77;;;1.00;;
13356;SDS011;6747;56.456;-3.120;2022-07-09T18:58:39;1.63;;;0.82;;
13356;SDS011;6747;56.456;-3.120;2022-07-09T19:01:07;0.93;;;0.73;;
13356;SDS011;6747;56.456;-3.120;2022-07-09T19:06:22;1.70;;;1.00;;
13356;SDS011;6747;56.456;-3.120;2022-07-09T19:08:51;1.05;;;0.80;;
13356;SDS011;6747;56.456;-3.120;2022-07-09T19:11:18;0.80;;;0.80;;
13356;SDS011;6747;56.456;-3.120;2022-07-09T19:16:56;1.13;;;0.82;;
13356;SDS011;6747;56.456;-3.120;2022-07-09T19:19:23;1.77;;;1.08;;
13356;SDS011;6747;56.456;-3.120;2022-07-09T19:24:56;2.58;;;1.00;;
13356;SDS011;6747;56.456;-3.120;2022-07-09T19:27:23;0.70;;;0.70;;
13356;SDS011;6747;56.456;-3.120;2022-07-09T19:29:51;0.77;;;0.77;;
13356;SDS011;6747;56.456;-3.120;2022-07-09T19:32:18;1.08;;;0.98;;
13356;SDS011;6747;56.456;-3.120;2022-07-09T19:38:07;1.27;;;0.90;;
13356;SDS011;6747;56.456;-3.120;2022-07-09T19:40:36;1.30;;;1.00;;
13356;SDS011;6747;56.456;-3.120;2022-07-09T19:43:04;1.35;;;0.80;;
13356;SDS011;6747;56.456;-3.120;2022-07-09T19:48:35;1.15;;;1.00;;
13356;SDS011;6747;56.456;-3.120;2022-07-09T19:51:05;1.08;;;0.73;;